Wetterdaten: Woche 25.04.16 - 01.05.16 (KW17)
Datum Zeit Temp. Aussen Temp. o. S. +5cm Feuchte Auss BlattFeu 1 Luftdruck Regen Sonnenschein Regendauer Solar Windben Empfang
25.04.2016 00:00 1,3 C 0,8 C -0,0 C 91 % 15 lf 1013,7 hPa 0,0 l/m 0,00 h 0,00 h 0 W/m 9,5 km/h (2 Bft) 98,64 %
25.04.2016 01:00 1,1 C 0,6 C -0,0 C 92 % 15 lf 1013,6 hPa 0,0 l/m 0,00 h 0,00 h 0 W/m 9,6 km/h (2 Bft) 95,54 %
25.04.2016 02:00 1,2 C 1,2 C 0,2 C 93 % 15 lf 1013,3 hPa 0,0 l/m 0,00 h 0,00 h 0 W/m 12,7 km/h (3 Bft) 93,83 %
25.04.2016 03:00 1,2 C 1,0 C 0,1 C 94 % 15 lf 1013,1 hPa 0,0 l/m 0,00 h 0,00 h 0 W/m 10,8 km/h (2 Bft) 96,19 %
25.04.2016 04:00 1,0 C 0,8 C 0,0 C 94 % 15 lf 1012,7 hPa 0,0 l/m 0,00 h 0,00 h 0 W/m 13,1 km/h (3 Bft) 97,34 %
25.04.2016 05:00 0,9 C 0,9 C 0,0 C 94 % 15 lf 1012,3 hPa 0,0 l/m 0,00 h 0,00 h 0 W/m 17,3 km/h (3 Bft) 96,71 %
25.04.2016 06:00 0,9 C 1,1 C 0,0 C 95 % 15 lf 1012,1 hPa 0,0 l/m 0,33 h 0,03 h 22 W/m 15,5 km/h (3 Bft) 93,81 %
25.04.2016 07:00 1,3 C 2,3 C 1,1 C 95 % 15 lf 1011,9 hPa 0,0 l/m 0,43 h 0,00 h 86 W/m 12,9 km/h (3 Bft) 97,53 %
25.04.2016 08:00 2,6 C 4,8 C 2,8 C 96 % 15 lf 1011,5 hPa 0,0 l/m 0,90 h 0,00 h 237 W/m 17,7 km/h (3 Bft) 95,28 %
25.04.2016 09:00 4,8 C 10,1 C 5,9 C 94 % 3 lf 1010,8 hPa 0,0 l/m 1,00 h 0,00 h 417 W/m 22,8 km/h (4 Bft) 97,42 %
25.04.2016 10:00 6,9 C 11,1 C 8,6 C 81 % 0 lf 1009,9 hPa 0,0 l/m 0,97 h 0,00 h 416 W/m 24,1 km/h (4 Bft) 96,21 %
25.04.2016 11:00 8,1 C 11,4 C 9,3 C 72 % 0 lf 1009,1 hPa 0,0 l/m 0,43 h 0,00 h 393 W/m 22,9 km/h (4 Bft) 94,84 %
25.04.2016 12:00 7,7 C 9,2 C 7,6 C 72 % 0 lf 1008,2 hPa 0,0 l/m 0,07 h 0,03 h 254 W/m 26,3 km/h (4 Bft) 96,15 %
25.04.2016 13:00 8,3 C 10,3 C 8,4 C 72 % 0 lf 1007,1 hPa 0,0 l/m 0,23 h 0,00 h 317 W/m 28,3 km/h (4 Bft) 98,15 %
25.04.2016 14:00 8,9 C 10,3 C 8,3 C 70 % 4 lf 1006,0 hPa 0,2 l/m 0,33 h 0,43 h 289 W/m 34,2 km/h (5 Bft) 93,01 %
25.04.2016 15:00 6,6 C 5,4 C 4,4 C 84 % 15 lf 1005,4 hPa 1,2 l/m 0,00 h 1,00 h 96 W/m 26,0 km/h (4 Bft) 97,25 %
25.04.2016 16:00 5,9 C 5,7 C 4,6 C 91 % 15 lf 1004,0 hPa 0,2 l/m 0,00 h 0,60 h 113 W/m 25,2 km/h (4 Bft) 97,64 %
25.04.2016 17:00 5,9 C 5,6 C 4,4 C 92 % 15 lf 1002,6 hPa 1,2 l/m 0,00 h 1,00 h 58 W/m 25,7 km/h (4 Bft) 94,88 %
25.04.2016 18:00 6,1 C 5,6 C 4,5 C 94 % 15 lf 1001,7 hPa 1,0 l/m 0,00 h 1,00 h 46 W/m 23,9 km/h (4 Bft) 94,81 %
25.04.2016 19:00 5,4 C 4,7 C 4,0 C 94 % 15 lf 1001,5 hPa 1,4 l/m 0,00 h 1,00 h 16 W/m 17,8 km/h (3 Bft) 97,22 %
25.04.2016 20:00 4,9 C 4,5 C 3,8 C 94 % 15 lf 1001,4 hPa 1,4 l/m 0,00 h 1,00 h 6 W/m 13,6 km/h (3 Bft) 94,88 %
25.04.2016 21:00 4,4 C 3,9 C 3,0 C 95 % 15 lf 1001,4 hPa 0,2 l/m 0,00 h 0,37 h 0 W/m 10,6 km/h (2 Bft) 97,73 %
25.04.2016 22:00 3,8 C 3,3 C 2,8 C 95 % 15 lf 1001,3 hPa 0,0 l/m 0,00 h 0,00 h 0 W/m 13,2 km/h (3 Bft) 94,63 %
25.04.2016 23:00 3,8 C 3,8 C 2,8 C 95 % 15 lf 1001,4 hPa 0,0 l/m 0,00 h 0,23 h 0 W/m 13,9 km/h (3 Bft) 95,04 %
26.04.2016 00:00 3,6 C 3,3 C 2,5 C 96 % 15 lf 1001,4 hPa 0,0 l/m 0,00 h 0,17 h 0 W/m 16,5 km/h (3 Bft) 96,72 %
26.04.2016 01:00 3,0 C 2,8 C 1,9 C 95 % 15 lf 1001,3 hPa 0,0 l/m 0,00 h 0,03 h 0 W/m 12,6 km/h (3 Bft) 96,09 %
26.04.2016 02:00 2,8 C 2,3 C 1,7 C 95 % 15 lf 1001,2 hPa 0,0 l/m 0,00 h 0,00 h 0 W/m 13,7 km/h (3 Bft) 95,16 %
26.04.2016 03:00 2,2 C 1,6 C 0,9 C 95 % 15 lf 1000,8 hPa 0,0 l/m 0,00 h 0,00 h 0 W/m 13,7 km/h (3 Bft) 94,23 %
26.04.2016 04:00 1,6 C 1,1 C 0,6 C 94 % 15 lf 1000,6 hPa 0,0 l/m 0,00 h 0,00 h 0 W/m 16,8 km/h (3 Bft) 98,19 %
26.04.2016 05:00 1,4 C 1,3 C 0,6 C 95 % 15 lf 1000,1 hPa 0,0 l/m 0,00 h 0,00 h 0 W/m 22,6 km/h (4 Bft) 95,95 %
26.04.2016 06:00 1,4 C 1,6 C 0,6 C 95 % 15 lf 999,7 hPa 0,0 l/m 0,07 h 0,00 h 18 W/m 20,4 km/h (4 Bft) 96,44 %
26.04.2016 07:00 1,7 C 2,4 C 1,0 C 95 % 13 lf 999,3 hPa 0,0 l/m 0,97 h 0,00 h 131 W/m 28,4 km/h (4 Bft) 95,72 %
26.04.2016 08:00 3,0 C 4,4 C 2,6 C 91 % 2 lf 999,1 hPa 0,0 l/m 0,70 h 0,13 h 234 W/m 35,8 km/h (5 Bft) 95,52 %
26.04.2016 09:00 4,1 C 5,5 C 3,5 C 87 % 1 lf 999,1 hPa 0,0 l/m 0,13 h 0,23 h 174 W/m 37,4 km/h (5 Bft) 96,27 %
26.04.2016 10:00 5,1 C 7,2 C 5,3 C 85 % 0 lf 999,0 hPa 0,0 l/m 0,27 h 0,00 h 286 W/m 34,0 km/h (5 Bft) 98,55 %
26.04.2016 11:00 6,3 C 9,6 C 7,5 C 81 % 1 lf 998,9 hPa 0,2 l/m 0,57 h 0,10 h 409 W/m 40,0 km/h (6 Bft) 93,36 %
26.04.2016 12:00 6,9 C 10,0 C 7,9 C 78 % 0 lf 998,8 hPa 0,0 l/m 0,43 h 0,03 h 395 W/m 41,6 km/h (6 Bft) 97,51 %
26.04.2016 13:00 7,8 C 10,8 C 7,9 C 76 % 4 lf 998,8 hPa 0,4 l/m 0,63 h 0,27 h 600 W/m 40,2 km/h (6 Bft) 97,45 %
26.04.2016 14:00 7,3 C 12,3 C 6,2 C 83 % 12 lf 998,9 hPa 0,0 l/m 0,87 h 0,03 h 696 W/m 34,6 km/h (5 Bft) 94,02 %
26.04.2016 15:00 6,6 C 5,8 C 3,7 C 80 % 13 lf 999,5 hPa 1,4 l/m 0,13 h 0,77 h 140 W/m 28,3 km/h (4 Bft) 96,60 %
26.04.2016 16:00 3,2 C 2,9 C 1,6 C 89 % 15 lf 1000,1 hPa 1,2 l/m 0,07 h 0,77 h 73 W/m 23,6 km/h (4 Bft) 97,51 %
26.04.2016 17:00 4,3 C 5,2 C 3,6 C 93 % 15 lf 1000,0 hPa 0,6 l/m 0,20 h 0,13 h 189 W/m 22,6 km/h (4 Bft) 94,43 %
26.04.2016 18:00 4,3 C 4,1 C 2,8 C 92 % 15 lf 1000,4 hPa 1,2 l/m 0,23 h 0,23 h 122 W/m 25,2 km/h (4 Bft) 95,84 %
26.04.2016 19:00 4,4 C 4,4 C 2,9 C 92 % 15 lf 1000,3 hPa 0,0 l/m 0,27 h 0,00 h 88 W/m 22,1 km/h (4 Bft) 95,78 %
26.04.2016 20:00 4,2 C 3,7 C 2,3 C 91 % 11 lf 1000,5 hPa 0,0 l/m 0,45 h 0,00 h 25 W/m 23,8 km/h (4 Bft) 96,67 %
26.04.2016 21:00 3,6 C 3,1 C 1,7 C 88 % 0 lf 1001,0 hPa 0,2 l/m 0,00 h 0,00 h 0 W/m 26,4 km/h (4 Bft) 96,78 %
26.04.2016 22:00 3,3 C 3,2 C 1,7 C 90 % 0 lf 1001,4 hPa 0,0 l/m 0,00 h 0,00 h 0 W/m 31,9 km/h (5 Bft) 95,42 %
26.04.2016 23:00 3,0 C 3,2 C 1,7 C 92 % 0 lf 1001,2 hPa 0,0 l/m 0,00 h 0,00 h 0 W/m 30,8 km/h (5 Bft) 94,77 %
27.04.2016 00:00 3,2 C 3,3 C 2,2 C 93 % 4 lf 1001,3 hPa 0,0 l/m 0,00 h 0,10 h 0 W/m 33,8 km/h (5 Bft) 96,46 %
27.04.2016 01:00 3,2 C 3,3 C 2,0 C 92 % 2 lf 1001,2 hPa 0,0 l/m 0,00 h 0,13 h 0 W/m 33,6 km/h (5 Bft) 97,28 %
27.04.2016 02:00 3,2 C 3,3 C 2,0 C 93 % 13 lf 1001,0 hPa 0,0 l/m 0,00 h 0,90 h 0 W/m 32,6 km/h (5 Bft) 95,89 %
27.04.2016 03:00 2,8 C 2,7 C 1,6 C 93 % 15 lf 1001,0 hPa 0,8 l/m 0,00 h 0,50 h 0 W/m 34,7 km/h (5 Bft) 93,36 %
27.04.2016 04:00 2,9 C 2,8 C 1,7 C 95 % 15 lf 1001,0 hPa 0,2 l/m 0,00 h 0,40 h 0 W/m 37,1 km/h (5 Bft) 97,13 %
27.04.2016 05:00 2,9 C 2,8 C 1,7 C 95 % 15 lf 1001,1 hPa 0,6 l/m 0,00 h 1,00 h 0 W/m 37,6 km/h (5 Bft) 96,58 %
27.04.2016 06:00 2,9 C 2,8 C 1,7 C 95 % 15 lf 1001,2 hPa 0,2 l/m 0,00 h 0,70 h 16 W/m 35,7 km/h (5 Bft) 94,24 %
27.04.2016 07:00 3,0 C 3,1 C 2,0 C 96 % 15 lf 1001,6 hPa 0,0 l/m 0,00 h 1,00 h 49 W/m 36,5 km/h (5 Bft) 96,73 %
27.04.2016 08:00 3,3 C 3,7 C 2,4 C 96 % 14 lf 1002,4 hPa 0,0 l/m 0,00 h 0,73 h 103 W/m 31,1 km/h (5 Bft) 94,74 %
27.04.2016 09:00 4,1 C 5,7 C 3,4 C 95 % 7 lf 1003,0 hPa 0,0 l/m 0,40 h 0,17 h 229 W/m 27,4 km/h (4 Bft) 96,36 %
27.04.2016 10:00 6,0 C 10,8 C 6,7 C 94 % 0 lf 1003,4 hPa 0,0 l/m 0,63 h 0,00 h 411 W/m 24,8 km/h (4 Bft) 97,37 %
27.04.2016 11:00 7,6 C 10,7 C 7,2 C 85 % 5 lf 1003,9 hPa 0,0 l/m 0,27 h 0,30 h 346 W/m 28,5 km/h (4 Bft) 93,80 %
27.04.2016 12:00 6,8 C 10,0 C 7,2 C 87 % 6 lf 1004,6 hPa 0,2 l/m 0,33 h 0,20 h 393 W/m 22,0 km/h (4 Bft) 95,38 %
27.04.2016 13:00 9,0 C 14,1 C 9,4 C 81 % 0 lf 1005,0 hPa 0,0 l/m 0,67 h 0,00 h 572 W/m 27,3 km/h (4 Bft) 98,43 %
27.04.2016 14:00 9,3 C 12,3 C 8,8 C 76 % 0 lf 1005,6 hPa 0,0 l/m 0,40 h 0,00 h 448 W/m 28,4 km/h (4 Bft) 93,52 %
27.04.2016 15:00 7,3 C 7,0 C 5,2 C 81 % 8 lf 1006,4 hPa 0,4 l/m 0,00 h 0,47 h 112 W/m 26,3 km/h (4 Bft) 96,73 %
27.04.2016 16:00 6,2 C 7,3 C 5,1 C 90 % 15 lf 1006,9 hPa 1,4 l/m 0,10 h 0,40 h 200 W/m 18,1 km/h (3 Bft) 96,65 %
27.04.2016 17:00 7,3 C 8,1 C 5,8 C 89 % 8 lf 1007,3 hPa 0,2 l/m 0,23 h 0,10 h 200 W/m 20,9 km/h (4 Bft) 96,36 %
27.04.2016 18:00 7,5 C 7,3 C 4,9 C 82 % 0 lf 1007,9 hPa 0,0 l/m 0,13 h 0,00 h 121 W/m 24,0 km/h (4 Bft) 94,02 %
27.04.2016 19:00 6,8 C 6,8 C 4,7 C 85 % 10 lf 1008,5 hPa 0,0 l/m 0,23 h 0,37 h 84 W/m 19,5 km/h (3 Bft) 96,37 %
27.04.2016 20:00 6,1 C 5,8 C 3,9 C 87 % 13 lf 1009,1 hPa 0,2 l/m 0,00 h 0,20 h 23 W/m 17,6 km/h (3 Bft) 97,22 %
27.04.2016 21:00 5,6 C 5,2 C 3,7 C 88 % 6 lf 1009,8 hPa 0,4 l/m 0,00 h 0,33 h 0 W/m 17,5 km/h (3 Bft) 97,08 %
27.04.2016 22:00 4,5 C 3,7 C 2,7 C 91 % 15 lf 1010,5 hPa 0,2 l/m 0,00 h 0,23 h 0 W/m 14,9 km/h (3 Bft) 94,81 %
27.04.2016 23:00 3,8 C 3,2 C 2,4 C 93 % 15 lf 1011,0 hPa 1,0 l/m 0,00 h 0,60 h 0 W/m 15,1 km/h (3 Bft) 96,37 %
28.04.2016 00:00 3,1 C 2,8 C 2,0 C 93 % 15 lf 1011,3 hPa 1,2 l/m 0,00 h 0,97 h 0 W/m 10,8 km/h (2 Bft) 94,16 %
28.04.2016 01:00 3,2 C 3,3 C 2,2 C 95 % 15 lf 1011,5 hPa 1,2 l/m 0,00 h 1,00 h 0 W/m 7,9 km/h (2 Bft) 97,93 %
28.04.2016 02:00 3,2 C 2,9 C 2,0 C 95 % 15 lf 1011,6 hPa 0,2 l/m 0,00 h 0,10 h 0 W/m 11,6 km/h (2 Bft) 97,43 %
28.04.2016 03:00 2,8 C 2,7 C 1,7 C 95 % 15 lf 1011,9 hPa 0,0 l/m 0,00 h 0,00 h 0 W/m 9,7 km/h (2 Bft) 91,74 %
28.04.2016 04:00 2,9 C 2,8 C 1,9 C 96 % 15 lf 1012,2 hPa 0,0 l/m 0,00 h 0,00 h 0 W/m 9,5 km/h (2 Bft) 97,87 %
28.04.2016 05:00 2,7 C 2,5 C 1,5 C 96 % 15 lf 1012,4 hPa 0,0 l/m 0,00 h 0,03 h 0 W/m 7,8 km/h (2 Bft) 96,30 %
28.04.2016 06:00 2,5 C 2,7 C 1,8 C 96 % 15 lf 1012,7 hPa 0,0 l/m 0,00 h 0,00 h 19 W/m 5,4 km/h (1 Bft) 95,94 %
28.04.2016 07:00 2,6 C 2,9 C 1,8 C 96 % 15 lf 1013,3 hPa 0,0 l/m 0,27 h 0,00 h 89 W/m 5,9 km/h (2 Bft) 96,08 %
28.04.2016 08:00 3,3 C 4,5 C 2,9 C 97 % 15 lf 1013,8 hPa 0,0 l/m 0,43 h 0,00 h 181 W/m 11,7 km/h (2 Bft) 95,72 %
28.04.2016 09:00 4,4 C 10,3 C 5,1 C 97 % 9 lf 1014,0 hPa 0,0 l/m 0,73 h 0,00 h 348 W/m 9,1 km/h (2 Bft) 94,94 %
28.04.2016 10:00 7,7 C 16,9 C 13,5 C 91 % 0 lf 1014,2 hPa 0,0 l/m 0,83 h 0,00 h 611 W/m 12,4 km/h (3 Bft) 97,80 %
28.04.2016 11:00 9,6 C 16,9 C 12,6 C 71 % 0 lf 1014,2 hPa 0,0 l/m 0,57 h 0,00 h 586 W/m 12,0 km/h (2 Bft) 94,87 %
28.04.2016 12:00 11,0 C 17,4 C 13,3 C 64 % 3 lf 1014,1 hPa 0,0 l/m 0,70 h 0,20 h 676 W/m 18,0 km/h (3 Bft) 96,73 %
28.04.2016 13:00 9,7 C 15,0 C 9,7 C 67 % 0 lf 1014,2 hPa 0,0 l/m 0,67 h 0,13 h 577 W/m 17,0 km/h (3 Bft) 97,13 %
28.04.2016 14:00 10,1 C 13,8 C 9,2 C 68 % 3 lf 1014,2 hPa 0,0 l/m 0,53 h 0,23 h 532 W/m 18,9 km/h (3 Bft) 94,19 %
28.04.2016 15:00 11,8 C 17,2 C 11,4 C 59 % 0 lf 1013,9 hPa 0,0 l/m 0,93 h 0,00 h 714 W/m 21,0 km/h (4 Bft) 96,80 %
28.04.2016 16:00 10,6 C 10,2 C 8,1 C 64 % 6 lf 1013,8 hPa 0,2 l/m 0,10 h 0,43 h 183 W/m 19,0 km/h (3 Bft) 96,87 %
28.04.2016 17:00 7,7 C 7,5 C 5,2 C 83 % 15 lf 1014,2 hPa 0,4 l/m 0,17 h 0,57 h 174 W/m 8,9 km/h (2 Bft) 94,24 %
28.04.2016 18:00 6,9 C 6,4 C 4,6 C 84 % 10 lf 1014,5 hPa 0,2 l/m 0,20 h 0,47 h 106 W/m 9,2 km/h (2 Bft) 96,86 %
28.04.2016 19:00 6,2 C 5,9 C 4,7 C 89 % 11 lf 1014,6 hPa 0,2 l/m 0,40 h 0,00 h 100 W/m 11,4 km/h (2 Bft) 96,37 %
28.04.2016 20:00 5,7 C 4,4 C 3,3 C 88 % 0 lf 1014,7 hPa 0,2 l/m 0,10 h 0,00 h 20 W/m 4,1 km/h (1 Bft) 96,01 %
28.04.2016 21:00 4,8 C 4,0 C 2,4 C 90 % 2 lf 1014,7 hPa 0,2 l/m 0,00 h 0,00 h 0 W/m 4,6 km/h (1 Bft) 94,45 %
28.04.2016 22:00 4,2 C 3,8 C 2,2 C 92 % 9 lf 1014,7 hPa 0,2 l/m 0,00 h 0,00 h 0 W/m 5,7 km/h (1 Bft) 95,73 %
28.04.2016 23:00 3,8 C 3,4 C 2,2 C 94 % 13 lf 1014,4 hPa 0,0 l/m 0,00 h 0,00 h 0 W/m 6,9 km/h (2 Bft) 98,36 %
29.04.2016 00:00 3,5 C 3,3 C 2,0 C 94 % 12 lf 1014,2 hPa 0,0 l/m 0,00 h 0,00 h 0 W/m 9,0 km/h (2 Bft) 94,47 %
29.04.2016 01:00 3,1 C 2,9 C 1,7 C 94 % 10 lf 1014,0 hPa 0,0 l/m 0,00 h 0,00 h 0 W/m 9,7 km/h (2 Bft) 97,01 %
29.04.2016 02:00 2,8 C 2,8 C 1,4 C 94 % 3 lf 1013,6 hPa 0,0 l/m 0,00 h 0,00 h 0 W/m 8,9 km/h (2 Bft) 95,15 %
29.04.2016 03:00 2,9 C 3,1 C 1,7 C 94 % 0 lf 1013,3 hPa 0,0 l/m 0,00 h 0,00 h 0 W/m 12,0 km/h (2 Bft) 95,15 %
29.04.2016 04:00 3,5 C 3,5 C 1,7 C 92 % 0 lf 1012,9 hPa 0,0 l/m 0,00 h 0,00 h 0 W/m 14,0 km/h (3 Bft) 97,78 %
29.04.2016 05:00 3,5 C 3,8 C 1,7 C 90 % 0 lf 1012,5 hPa 0,0 l/m 0,00 h 0,00 h 0 W/m 13,9 km/h (3 Bft) 95,94 %
29.04.2016 06:00 4,0 C 4,4 C 2,5 C 87 % 0 lf 1012,3 hPa 0,0 l/m 0,27 h 0,00 h 24 W/m 19,5 km/h (3 Bft) 94,02 %
29.04.2016 07:00 4,6 C 5,4 C 3,6 C 83 % 0 lf 1012,4 hPa 0,0 l/m 1,00 h 0,00 h 159 W/m 21,0 km/h (4 Bft) 96,00 %
29.04.2016 08:00 6,5 C 8,4 C 5,9 C 80 % 0 lf 1012,6 hPa 0,0 l/m 1,00 h 0,00 h 354 W/m 23,1 km/h (4 Bft) 97,93 %
29.04.2016 09:00 9,3 C 12,7 C 8,6 C 72 % 0 lf 1012,6 hPa 0,0 l/m 0,83 h 0,00 h 366 W/m 29,8 km/h (5 Bft) 96,58 %
29.04.2016 10:00 10,0 C 11,2 C 9,2 C 69 % 0 lf 1012,7 hPa 0,0 l/m 0,00 h 0,03 h 222 W/m 29,8 km/h (5 Bft) 94,02 %
29.04.2016 11:00 11,0 C 13,0 C 10,7 C 65 % 0 lf 1012,7 hPa 0,0 l/m 0,23 h 0,00 h 321 W/m 32,9 km/h (5 Bft) 97,23 %
29.04.2016 12:00 11,9 C 13,6 C 11,5 C 63 % 0 lf 1012,7 hPa 0,0 l/m 0,27 h 0,00 h 324 W/m 31,9 km/h (5 Bft) 96,51 %
29.04.2016 13:00 11,0 C 11,3 C 9,2 C 71 % 0 lf 1013,0 hPa 0,0 l/m 0,00 h 0,07 h 143 W/m 21,6 km/h (4 Bft) 96,16 %
29.04.2016 14:00 10,2 C 12,7 C 10,3 C 81 % 0 lf 1013,4 hPa 0,0 l/m 0,10 h 0,00 h 279 W/m 14,3 km/h (3 Bft) 96,18 %
29.04.2016 15:00 9,9 C 10,6 C 8,8 C 80 % 1 lf 1013,8 hPa 0,0 l/m 0,00 h 0,17 h 149 W/m 16,6 km/h (3 Bft) 97,03 %
29.04.2016 16:00 9,6 C 10,9 C 8,8 C 80 % 0 lf 1014,0 hPa 0,0 l/m 0,00 h 0,07 h 158 W/m 13,3 km/h (3 Bft) 96,43 %
29.04.2016 17:00 8,7 C 8,2 C 6,8 C 84 % 11 lf 1014,3 hPa 0,0 l/m 0,00 h 0,77 h 64 W/m 17,8 km/h (3 Bft) 95,59 %
29.04.2016 18:00 7,8 C 7,2 C 6,1 C 91 % 15 lf 1014,5 hPa 0,2 l/m 0,00 h 1,00 h 44 W/m 12,7 km/h (3 Bft) 94,95 %
29.04.2016 19:00 7,6 C 7,2 C 6,1 C 93 % 15 lf 1014,4 hPa 0,0 l/m 0,00 h 1,00 h 27 W/m 14,1 km/h (3 Bft) 96,87 %
29.04.2016 20:00 7,4 C 7,2 C 5,9 C 94 % 15 lf 1014,3 hPa 0,0 l/m 0,40 h 0,10 h 30 W/m 14,2 km/h (3 Bft) 97,65 %
29.04.2016 21:00 7,3 C 7,2 C 5,6 C 94 % 15 lf 1014,6 hPa 0,0 l/m 0,00 h 0,03 h 0 W/m 11,6 km/h (2 Bft) 93,95 %
29.04.2016 22:00 7,2 C 7,2 C 5,6 C 95 % 15 lf 1014,7 hPa 0,0 l/m 0,00 h 0,00 h 0 W/m 11,5 km/h (2 Bft) 96,23 %
29.04.2016 23:00 7,2 C 6,9 C 5,3 C 94 % 8 lf 1014,6 hPa 0,2 l/m 0,00 h 0,00 h 0 W/m 12,0 km/h (2 Bft) 97,22 %
30.04.2016 00:00 7,1 C 7,1 C 5,3 C 93 % 1 lf 1014,7 hPa 0,0 l/m 0,00 h 0,00 h 0 W/m 6,5 km/h (2 Bft) 92,42 %
30.04.2016 01:00 7,0 C 7,0 C 5,5 C 94 % 6 lf 1014,9 hPa 0,0 l/m 0,00 h 0,53 h 0 W/m 9,2 km/h (2 Bft) 96,37 %
30.04.2016 02:00 6,8 C 6,2 C 5,0 C 94 % 15 lf 1015,1 hPa 0,0 l/m 0,00 h 0,98 h 0 W/m 8,5 km/h (2 Bft) 95,58 %
30.04.2016 03:00 6,4 C 6,1 C 5,0 C 94 % 15 lf 1015,2 hPa 0,0 l/m 0,00 h 0,83 h 0 W/m 1,9 km/h (1 Bft) 94,25 %
30.04.2016 04:00 6,2 C 6,0 C 5,0 C 94 % 15 lf 1015,4 hPa 0,0 l/m 0,00 h 1,00 h 0 W/m 0,0 km/h (0 Bft) 98,17 %
30.04.2016 05:00 6,1 C 5,6 C 5,0 C 95 % 15 lf 1015,7 hPa 0,0 l/m 0,00 h 1,00 h 0 W/m 1,0 km/h (0 Bft) 97,10 %
30.04.2016 06:00 6,1 C 5,7 C 5,0 C 95 % 15 lf 1016,1 hPa 0,0 l/m 0,00 h 1,00 h 11 W/m 3,8 km/h (1 Bft) 93,74 %
30.04.2016 07:00 6,1 C 6,1 C 5,0 C 95 % 15 lf 1016,6 hPa 0,0 l/m 0,00 h 1,00 h 49 W/m 0,7 km/h (0 Bft) 97,81 %
30.04.2016 08:00 6,1 C 6,4 C 5,2 C 96 % 15 lf 1017,0 hPa 0,0 l/m 0,00 h 0,83 h 120 W/m 4,5 km/h (1 Bft) 95,63 %
30.04.2016 09:00 6,7 C 7,7 C 6,0 C 96 % 5 lf 1017,2 hPa 0,2 l/m 0,00 h 0,60 h 205 W/m 6,8 km/h (2 Bft) 96,54 %
30.04.2016 10:00 7,9 C 10,3 C 7,5 C 93 % 0 lf 1017,5 hPa 0,0 l/m 0,70 h 0,10 h 327 W/m 6,5 km/h (2 Bft) 94,25 %
30.04.2016 11:00 8,9 C 11,6 C 7,3 C 85 % 0 lf 1017,9 hPa 0,0 l/m 0,00 h 0,20 h 302 W/m 5,3 km/h (1 Bft) 97,04 %
30.04.2016 12:00 9,7 C 12,3 C 8,2 C 84 % 13 lf 1018,2 hPa 0,0 l/m 0,43 h 0,80 h 367 W/m 8,2 km/h (2 Bft) 95,29 %
30.04.2016 13:00 10,2 C 14,0 C 9,1 C 80 % 1 lf 1018,2 hPa 0,0 l/m 0,47 h 0,80 h 365 W/m 8,9 km/h (2 Bft) 97,08 %
30.04.2016 14:00 10,5 C 13,4 C 10,6 C 78 % 0 lf 1018,3 hPa 0,0 l/m 0,00 h 0,03 h 300 W/m 7,9 km/h (2 Bft) 95,52 %
30.04.2016 15:00 10,0 C 9,8 C 8,1 C 82 % 4 lf 1018,5 hPa 0,0 l/m 0,00 h 0,73 h 105 W/m 14,1 km/h (3 Bft) 96,59 %
30.04.2016 16:00 8,9 C 9,4 C 7,5 C 83 % 2 lf 1018,8 hPa 0,0 l/m 0,00 h 0,03 h 74 W/m 4,8 km/h (1 Bft) 95,94 %
30.04.2016 17:00 9,1 C 9,6 C 8,1 C 81 % 0 lf 1019,0 hPa 0,0 l/m 0,00 h 0,00 h 85 W/m 14,6 km/h (3 Bft) 98,86 %
30.04.2016 18:00 9,0 C 9,4 C 7,9 C 82 % 0 lf 1019,3 hPa 0,0 l/m 0,00 h 0,47 h 78 W/m 6,8 km/h (2 Bft) 92,60 %
30.04.2016 19:00 8,9 C 9,3 C 7,7 C 82 % 1 lf 1019,7 hPa 0,0 l/m 0,00 h 0,30 h 52 W/m 4,3 km/h (1 Bft) 97,29 %
30.04.2016 20:00 8,7 C 8,5 C 7,0 C 84 % 0 lf 1020,2 hPa 0,0 l/m 0,00 h 0,00 h 14 W/m 7,1 km/h (2 Bft) 97,52 %
30.04.2016 21:00 8,3 C 8,0 C 6,8 C 87 % 0 lf 1020,8 hPa 0,0 l/m 0,00 h 0,00 h 0 W/m 10,1 km/h (2 Bft) 95,52 %
30.04.2016 22:00 8,2 C 8,3 C 7,0 C 81 % 0 lf 1021,2 hPa 0,2 l/m 0,00 h 0,00 h 0 W/m 19,1 km/h (3 Bft) 94,65 %
30.04.2016 23:00 7,7 C 7,4 C 6,2 C 80 % 0 lf 1021,8 hPa 0,0 l/m 0,00 h 0,00 h 0 W/m 19,6 km/h (3 Bft) 98,36 %
01.05.2016 00:00 7,0 C 6,9 C 5,7 C 83 % 0 lf 1022,3 hPa 0,0 l/m 0,00 h 0,00 h 0 W/m 18,6 km/h (3 Bft) 94,44 %
01.05.2016 01:00 6,4 C 6,2 C 5,0 C 84 % 0 lf 1022,6 hPa 0,0 l/m 0,00 h 0,00 h 0 W/m 18,1 km/h (3 Bft) 98,36 %
01.05.2016 02:00 5,9 C 5,8 C 4,5 C 86 % 0 lf 1022,8 hPa 0,0 l/m 0,00 h 0,00 h 0 W/m 16,9 km/h (3 Bft) 94,80 %
01.05.2016 03:00 5,6 C 5,6 C 4,4 C 88 % 0 lf 1022,9 hPa 0,0 l/m 0,00 h 0,00 h 0 W/m 17,7 km/h (3 Bft) 95,09 %
01.05.2016 04:00 5,6 C 5,6 C 4,4 C 89 % 0 lf 1023,2 hPa 0,0 l/m 0,00 h 0,00 h 0 W/m 19,5 km/h (3 Bft) 97,89 %
01.05.2016 05:00 5,4 C 5,6 C 4,4 C 89 % 0 lf 1023,7 hPa 0,0 l/m 0,00 h 0,00 h 0 W/m 21,1 km/h (4 Bft) 96,30 %
01.05.2016 06:00 5,4 C 5,6 C 4,4 C 90 % 0 lf 1024,0 hPa 0,0 l/m 0,20 h 0,00 h 22 W/m 19,7 km/h (3 Bft) 94,31 %
01.05.2016 07:00 5,4 C 5,8 C 4,4 C 91 % 0 lf 1024,5 hPa 0,0 l/m 0,00 h 0,00 h 35 W/m 20,6 km/h (4 Bft) 96,30 %
01.05.2016 08:00 5,8 C 6,7 C 5,1 C 91 % 1 lf 1025,1 hPa 0,0 l/m 0,00 h 0,20 h 93 W/m 21,9 km/h (4 Bft) 97,08 %
01.05.2016 09:00 6,9 C 9,9 C 7,3 C 88 % 0 lf 1025,2 hPa 0,0 l/m 0,57 h 0,00 h 298 W/m 23,2 km/h (4 Bft) 96,09 %
01.05.2016 10:00 8,4 C 13,8 C 10,5 C 82 % 0 lf 1025,5 hPa 0,0 l/m 0,93 h 0,00 h 522 W/m 25,4 km/h (4 Bft) 96,16 %
01.05.2016 11:00 9,4 C 13,8 C 10,5 C 77 % 0 lf 1025,7 hPa 0,0 l/m 0,67 h 0,00 h 508 W/m 26,9 km/h (4 Bft) 95,93 %
01.05.2016 12:00 10,6 C 17,2 C 12,6 C 75 % 0 lf 1025,4 hPa 0,0 l/m 0,83 h 0,00 h 664 W/m 27,0 km/h (4 Bft) 96,37 %
01.05.2016 13:00 12,2 C 19,1 C 12,1 C 68 % 0 lf 1025,2 hPa 0,0 l/m 1,00 h 0,00 h 834 W/m 28,0 km/h (4 Bft) 96,79 %
01.05.2016 14:00 13,5 C 20,4 C 12,8 C 66 % 0 lf 1025,2 hPa 0,0 l/m 1,00 h 0,00 h 805 W/m 26,4 km/h (4 Bft) 93,59 %
01.05.2016 15:00 14,2 C 19,9 C 13,2 C 66 % 0 lf 1025,2 hPa 0,0 l/m 1,00 h 0,00 h 725 W/m 25,7 km/h (4 Bft) 98,36 %
01.05.2016 16:00 14,2 C 19,3 C 14,0 C 68 % 0 lf 1025,1 hPa 0,0 l/m 0,97 h 0,00 h 616 W/m 24,1 km/h (4 Bft) 95,59 %
01.05.2016 17:00 13,9 C 16,9 C 12,9 C 70 % 0 lf 1025,1 hPa 0,0 l/m 1,00 h 0,00 h 470 W/m 23,4 km/h (4 Bft) 95,80 %
01.05.2016 18:00 12,9 C 13,5 C 11,5 C 72 % 0 lf 1025,5 hPa 0,0 l/m 1,00 h 0,00 h 306 W/m 24,7 km/h (4 Bft) 97,80 %
01.05.2016 19:00 12,3 C 12,5 C 10,9 C 72 % 0 lf 1025,7 hPa 0,0 l/m 0,90 h 0,00 h 131 W/m 22,5 km/h (4 Bft) 94,16 %
01.05.2016 20:00 11,7 C 11,1 C 9,7 C 74 % 0 lf 1026,0 hPa 0,0 l/m 0,00 h 0,00 h 23 W/m 12,7 km/h (3 Bft) 96,02 %
01.05.2016 21:00 10,4 C 8,5 C 7,3 C 77 % 0 lf 1026,2 hPa 0,0 l/m 0,00 h 0,00 h 1 W/m 4,6 km/h (1 Bft) 97,93 %
01.05.2016 22:00 8,8 C 6,7 C 5,5 C 80 % 0 lf 1026,3 hPa 0,0 l/m 0,00 h 0,00 h 0 W/m 0,5 km/h (0 Bft) 96,23 %
01.05.2016 23:00 7,5 C 5,7 C 4,6 C 83 % 0 lf 1026,3 hPa 0,0 l/m 0,00 h 0,00 h 0 W/m 1,5 km/h (1 Bft) 94,66 %
Min-Datum _ 25.04.16 25.04.16 25.04.16 28.04.16 25.04.16 26.04.16 - - - - 28.04.16 30.04.16
_ Min-Zeit 01:48 00:28 00:48 15:42 09:20 12:30 - - - - 07:28 00:02
Minimum _ 0,9 C 0,6 C -0,6 C 55 % 0 lf 998,6 hPa - - - - 0,0 km/h (0 Bft) 5,88 %
Max-Datum _ 01.05.16 28.04.16 28.04.16 28.04.16 25.04.16 01.05.16 25.04.16 25.04.16 25.04.16 26.04.16 26.04.16 25.04.16
_ Max-Zeit 16:44 12:16 12:20 09:42 00:00 22:14 19:04 06:38 06:42 13:32 12:58 00:08
Maximum _ 14,3 C 23,9 C 18,3 C 98 % 15 lf 1026,4 hPa 1,4 l/m 0,03 h 0,03 h 1190 W/m 66,9 km/h
W (8 Bft)
100,00 %
Durchschnitt _ 6,2 C 7,2 C 5,3 C 87 % 7 lf 1011,7 hPa #22,8 l/m #36:29 h #37:23 h 243 W/m 18,2 km/h (3 Bft) 96,03 %
© 2016 W. Hausmann